createdAt,value
2022-10-05T00:02:24.364Z,10.30
2022-10-05T00:04:57.967Z,10.19
2022-10-05T00:07:25.372Z,10.23
2022-10-05T00:09:56.835Z,10.21
2022-10-05T00:12:25.421Z,10.18
2022-10-05T00:14:56.751Z,10.17
2022-10-05T00:17:28.196Z,10.20
2022-10-05T00:19:55.850Z,10.17
2022-10-05T00:22:30.760Z,10.14
2022-10-05T00:25:01.091Z,10.12
2022-10-05T00:27:34.218Z,10.14
2022-10-05T00:30:10.911Z,10.16
2022-10-05T00:32:38.118Z,10.06
2022-10-05T00:35:05.898Z,10.05
2022-10-05T00:37:33.459Z,10.10
2022-10-05T00:40:01.078Z,10.12
2022-10-05T00:43:07.929Z,10.15
2022-10-05T00:45:47.856Z,10.09
2022-10-05T00:48:29.618Z,10.02
2022-10-05T00:51:11.137Z,10.05
2022-10-05T00:53:56.901Z,10.09
2022-10-05T00:56:24.081Z,10.07
2022-10-05T00:59:19.262Z,10.00
2022-10-05T01:01:52.810Z,9.94
2022-10-05T01:04:45.068Z,9.98
2022-10-05T01:07:41.432Z,9.88
2022-10-05T01:10:11.681Z,9.92
2022-10-05T01:12:59.691Z,9.91
2022-10-05T01:15:29.853Z,9.77
2022-10-05T01:18:19.691Z,9.65
2022-10-05T01:21:11.806Z,9.58
2022-10-05T01:24:00.394Z,9.53
2022-10-05T01:26:42.524Z,9.44
2022-10-05T01:29:36.055Z,9.41
2022-10-05T01:32:23.983Z,9.38
2022-10-05T01:35:04.932Z,9.33
2022-10-05T01:38:14.567Z,9.16
2022-10-05T01:40:59.043Z,9.18
2022-10-05T01:43:52.223Z,9.20
2022-10-05T01:46:34.630Z,9.20
2022-10-05T01:49:42.785Z,9.28
2022-10-05T01:52:40.844Z,9.25
2022-10-05T01:55:36.281Z,9.17
2022-10-05T01:58:30.452Z,9.19
2022-10-05T02:01:07.339Z,9.03
2022-10-05T02:03:44.195Z,8.98
2022-10-05T02:06:23.117Z,8.95
2022-10-05T02:08:59.007Z,8.95
2022-10-05T02:11:26.423Z,8.97
2022-10-05T02:14:00.378Z,8.86
2022-10-05T02:16:36.659Z,8.85
2022-10-05T02:19:22.725Z,8.83
2022-10-05T02:22:03.519Z,8.79
2022-10-05T02:24:44.555Z,8.81
2022-10-05T02:27:17.065Z,8.81
2022-10-05T02:29:48.843Z,8.77
2022-10-05T02:32:28.290Z,8.80
2022-10-05T02:35:04.289Z,8.77
2022-10-05T02:37:57.211Z,8.84
2022-10-05T02:40:47.187Z,8.82
2022-10-05T02:43:30.673Z,8.85
2022-10-05T02:46:04.301Z,8.79
2022-10-05T02:48:50.306Z,8.73
2022-10-05T02:51:51.360Z,8.68
2022-10-05T02:54:26.921Z,8.65
2022-10-05T02:57:11.055Z,8.58
2022-10-05T02:59:48.708Z,8.55
2022-10-05T03:02:26.730Z,8.56
2022-10-05T03:05:12.949Z,8.50
2022-10-05T03:08:40.147Z,8.48
2022-10-05T03:11:39.204Z,8.44
2022-10-05T03:14:27.086Z,8.43
2022-10-05T03:17:19.133Z,8.44
2022-10-05T03:19:56.828Z,8.45
2022-10-05T03:22:27.171Z,8.41
2022-10-05T03:25:05.935Z,8.38
2022-10-05T03:27:49.411Z,8.37
2022-10-05T03:30:21.824Z,8.40
2022-10-05T03:33:12.997Z,8.35
2022-10-05T03:36:00.771Z,8.37
2022-10-05T03:38:41.546Z,8.36
2022-10-05T03:41:31.437Z,8.38
2022-10-05T03:44:01.964Z,8.32
2022-10-05T03:46:51.795Z,8.32
2022-10-05T03:49:28.859Z,8.32
2022-10-05T03:52:05.866Z,8.36
2022-10-05T03:54:39.868Z,8.32
2022-10-05T03:57:19.382Z,8.30
2022-10-05T03:59:59.811Z,8.30
2022-10-05T04:02:34.502Z,8.25
2022-10-05T04:05:11.105Z,8.27
2022-10-05T04:07:53.229Z,8.20
2022-10-05T04:10:32.951Z,8.23
2022-10-05T04:13:09.732Z,8.27
2022-10-05T04:15:46.299Z,8.20
2022-10-05T04:18:32.455Z,8.10
2022-10-05T04:21:06.923Z,8.16
2022-10-05T04:23:44.000Z,8.12
2022-10-05T04:26:20.212Z,8.06
2022-10-05T04:29:10.585Z,8.17
2022-10-05T04:32:08.933Z,8.07
2022-10-05T04:35:11.201Z,8.14
2022-10-05T04:37:53.433Z,8.08
2022-10-05T04:40:32.970Z,7.97
2022-10-05T04:43:19.004Z,7.78
2022-10-05T04:46:08.448Z,7.84
2022-10-05T04:48:57.742Z,7.89
2022-10-05T04:52:05.905Z,8.03
2022-10-05T04:54:39.920Z,7.87
2022-10-05T04:57:13.745Z,7.95
2022-10-05T05:00:02.816Z,7.85
2022-10-05T05:03:12.815Z,7.88
2022-10-05T05:06:15.902Z,7.80
2022-10-05T05:08:48.623Z,7.65
2022-10-05T05:11:46.411Z,7.66
2022-10-05T05:14:52.330Z,7.81
2022-10-05T05:17:48.166Z,7.75
2022-10-05T05:20:31.311Z,7.58
2022-10-05T05:23:12.071Z,7.52
2022-10-05T05:25:50.995Z,7.49
2022-10-05T05:28:32.613Z,7.40
2022-10-05T05:31:21.914Z,7.33
2022-10-05T05:34:03.100Z,7.39
2022-10-05T05:36:41.980Z,7.38
2022-10-05T05:39:38.472Z,7.49
2022-10-05T05:42:36.908Z,7.45
2022-10-05T05:45:16.660Z,7.51
2022-10-05T05:47:52.106Z,7.49
2022-10-05T05:50:51.030Z,7.37
2022-10-05T05:53:29.073Z,7.29
2022-10-05T05:56:13.405Z,7.32
2022-10-05T05:58:48.956Z,7.31
2022-10-05T06:01:44.276Z,7.42
2022-10-05T06:04:19.092Z,7.45
2022-10-05T06:06:53.219Z,7.44
2022-10-05T06:09:32.696Z,7.36
2022-10-05T06:12:16.586Z,7.33
2022-10-05T06:14:55.375Z,7.45
2022-10-05T06:17:35.644Z,7.41
2022-10-05T06:20:06.648Z,7.40
2022-10-05T06:22:41.082Z,7.50
2022-10-05T06:25:12.044Z,7.61
2022-10-05T06:28:03.156Z,7.72
2022-10-05T06:30:59.787Z,7.79
2022-10-05T06:33:46.026Z,7.91
2022-10-05T06:36:23.592Z,8.11
2022-10-05T06:39:12.726Z,8.13
2022-10-05T06:42:08.103Z,8.18
2022-10-05T06:45:03.198Z,8.24
2022-10-05T06:48:05.049Z,8.22
2022-10-05T06:51:00.557Z,8.25
2022-10-05T06:54:04.183Z,8.25
2022-10-05T06:56:45.704Z,8.31
2022-10-05T06:59:16.088Z,8.37
2022-10-05T07:01:50.934Z,8.42
2022-10-05T07:04:34.582Z,8.54
2022-10-05T07:07:10.537Z,8.62
2022-10-05T07:10:04.597Z,8.74
2022-10-05T07:12:54.187Z,8.80
2022-10-05T07:15:22.679Z,8.97
2022-10-05T07:18:22.703Z,9.12
2022-10-05T07:21:03.813Z,9.31
2022-10-05T07:24:02.775Z,9.45
2022-10-05T07:26:48.844Z,9.57
2022-10-05T07:29:29.076Z,9.66
2022-10-05T07:32:14.921Z,9.82
2022-10-05T07:34:42.182Z,9.98
2022-10-05T07:37:39.513Z,10.02
2022-10-05T07:40:18.234Z,10.15
2022-10-05T07:43:07.859Z,10.31
2022-10-05T07:45:53.435Z,10.49
2022-10-05T07:48:22.807Z,10.67
2022-10-05T07:50:59.931Z,10.88
2022-10-05T07:53:36.843Z,11.02
2022-10-05T07:56:15.826Z,11.16
2022-10-05T07:58:47.269Z,11.28
2022-10-05T08:01:40.963Z,11.42
2022-10-05T08:04:52.422Z,11.61
2022-10-05T08:07:20.276Z,11.64
2022-10-05T08:09:57.654Z,11.62
2022-10-05T08:12:38.562Z,11.71
2022-10-05T08:15:15.578Z,11.69
2022-10-05T08:18:16.752Z,11.69
2022-10-05T08:20:52.634Z,11.81
2022-10-05T08:23:47.566Z,11.88
2022-10-05T08:26:27.421Z,12.14
2022-10-05T08:29:13.771Z,12.32
2022-10-05T08:31:46.211Z,12.46
2022-10-05T08:34:33.708Z,12.58
2022-10-05T08:37:01.040Z,12.61
2022-10-05T08:39:39.340Z,12.77
2022-10-05T08:42:25.875Z,12.78
2022-10-05T08:45:15.610Z,12.93
2022-10-05T08:48:27.887Z,12.89
2022-10-05T08:51:38.576Z,12.93
2022-10-05T08:54:19.556Z,12.96
2022-10-05T08:57:06.076Z,13.08
2022-10-05T08:59:47.127Z,13.22
2022-10-05T09:03:10.639Z,13.49
2022-10-05T09:06:05.660Z,13.76
2022-10-05T09:08:58.600Z,14.09
2022-10-05T09:11:40.610Z,14.34
2022-10-05T09:14:20.879Z,14.62
2022-10-05T09:17:23.942Z,14.93
2022-10-05T09:20:22.551Z,15.16
2022-10-05T09:23:12.545Z,15.24
2022-10-05T09:25:43.091Z,15.33
2022-10-05T09:28:33.019Z,15.64
2022-10-05T09:31:12.551Z,15.97
2022-10-05T09:34:11.065Z,16.08
2022-10-05T09:37:00.245Z,16.19
2022-10-05T09:39:40.552Z,16.23
2022-10-05T09:42:46.166Z,16.34
2022-10-05T09:45:27.128Z,16.14
2022-10-05T09:48:18.639Z,16.07
2022-10-05T09:51:20.402Z,15.91
2022-10-05T09:54:34.387Z,16.06
2022-10-05T09:57:20.045Z,16.21
2022-10-05T10:00:09.582Z,16.19
2022-10-05T10:03:14.368Z,16.14
2022-10-05T10:05:48.513Z,16.15
2022-10-05T10:08:37.792Z,16.19
2022-10-05T10:11:11.037Z,16.33
2022-10-05T10:14:12.743Z,16.38
2022-10-05T10:17:00.374Z,16.32
2022-10-05T10:20:02.291Z,16.16
2022-10-05T10:22:52.636Z,15.92
2022-10-05T10:25:47.950Z,15.73
2022-10-05T10:28:42.853Z,15.58
2022-10-05T10:31:28.464Z,15.65
2022-10-05T10:34:07.907Z,15.87
2022-10-05T10:36:35.152Z,16.11
2022-10-05T10:39:16.146Z,16.23
2022-10-05T10:42:08.412Z,16.35
2022-10-05T10:44:56.422Z,16.52
2022-10-05T10:48:04.485Z,16.75
2022-10-05T10:51:14.485Z,17.17
2022-10-05T10:54:12.394Z,17.38
2022-10-05T10:57:10.370Z,17.60
2022-10-05T11:00:31.089Z,17.82
2022-10-05T11:03:12.266Z,17.92
2022-10-05T11:06:18.338Z,17.80
2022-10-05T11:09:01.814Z,17.87
2022-10-05T11:11:48.103Z,17.89
2022-10-05T11:14:42.441Z,17.79
2022-10-05T11:17:48.133Z,17.95
2022-10-05T11:20:44.182Z,18.01
2022-10-05T11:23:20.865Z,18.17
2022-10-05T11:26:38.554Z,18.43
2022-10-05T11:29:35.563Z,18.41
2022-10-05T11:32:27.978Z,18.49
2022-10-05T11:35:31.153Z,18.44
2022-10-05T11:38:11.813Z,18.33
2022-10-05T11:40:54.242Z,18.17
2022-10-05T11:43:39.599Z,18.01
2022-10-05T11:46:06.979Z,17.98
2022-10-05T11:48:49.149Z,17.77
2022-10-05T11:51:28.728Z,17.71
2022-10-05T11:54:18.319Z,17.55
2022-10-05T11:57:06.392Z,17.60
2022-10-05T11:59:49.397Z,17.63
2022-10-05T12:02:20.973Z,17.71
2022-10-05T12:04:57.662Z,18.03
2022-10-05T12:07:41.050Z,18.21
2022-10-05T12:10:35.763Z,18.40
2022-10-05T12:13:28.404Z,18.58
2022-10-05T12:16:22.161Z,18.67
2022-10-05T12:18:58.214Z,18.59
2022-10-05T12:21:52.307Z,18.49
2022-10-05T12:24:44.286Z,18.41
2022-10-05T12:27:18.924Z,18.49
2022-10-05T12:30:17.258Z,18.44
2022-10-05T12:32:55.902Z,18.59
2022-10-05T12:35:53.506Z,18.63
2022-10-05T12:38:46.325Z,18.63
2022-10-05T12:41:34.672Z,18.52
2022-10-05T12:44:36.917Z,18.44
2022-10-05T12:47:11.433Z,18.28
2022-10-05T12:50:17.099Z,18.18
2022-10-05T12:53:03.234Z,18.25
2022-10-05T12:55:42.379Z,18.20
2022-10-05T12:58:36.459Z,18.12
2022-10-05T13:01:24.826Z,18.12
2022-10-05T13:04:05.188Z,18.00
2022-10-05T13:07:00.096Z,17.89
2022-10-05T13:09:36.913Z,17.92
2022-10-05T13:12:20.262Z,17.92
2022-10-05T13:15:03.262Z,17.90
2022-10-05T13:18:01.383Z,17.87
2022-10-05T13:20:42.417Z,17.98
2022-10-05T13:23:27.023Z,18.01
2022-10-05T13:26:38.740Z,17.94
2022-10-05T13:29:23.992Z,17.83
2022-10-05T13:31:56.727Z,17.85
2022-10-05T13:35:01.431Z,17.97
2022-10-05T13:37:32.299Z,17.92
2022-10-05T13:40:13.191Z,18.00
2022-10-05T13:43:03.980Z,18.18
2022-10-05T13:45:57.110Z,18.33
2022-10-05T13:48:43.251Z,18.36
2022-10-05T13:51:33.434Z,18.64
2022-10-05T13:54:16.970Z,18.73
2022-10-05T13:56:51.090Z,18.81
2022-10-05T14:00:02.172Z,18.88
2022-10-05T14:02:41.794Z,18.91
2022-10-05T14:05:24.499Z,18.99
2022-10-05T14:08:17.314Z,18.93
2022-10-05T14:10:47.231Z,19.18
2022-10-05T14:13:41.032Z,19.19
2022-10-05T14:16:26.427Z,19.27
2022-10-05T14:18:58.032Z,19.31
2022-10-05T14:21:29.155Z,19.26
2022-10-05T14:24:32.181Z,19.22
2022-10-05T14:27:24.392Z,19.42
2022-10-05T14:29:56.910Z,19.43
2022-10-05T14:32:25.564Z,19.51
2022-10-05T14:34:59.839Z,19.48
2022-10-05T14:38:00.848Z,19.46
2022-10-05T14:40:37.077Z,19.53
2022-10-05T14:43:16.532Z,19.39
2022-10-05T14:46:23.285Z,19.40
2022-10-05T14:49:13.489Z,19.51
2022-10-05T14:51:42.854Z,19.54
2022-10-05T14:54:32.328Z,19.52
2022-10-05T14:57:02.480Z,19.57
2022-10-05T14:59:46.035Z,19.54
2022-10-05T15:02:38.306Z,19.57
2022-10-05T15:05:17.189Z,19.46
2022-10-05T15:07:51.305Z,19.23
2022-10-05T15:10:49.982Z,19.06
2022-10-05T15:13:22.249Z,18.85
2022-10-05T15:15:57.645Z,18.68
2022-10-05T15:18:34.966Z,18.65
2022-10-05T15:21:11.388Z,18.40
2022-10-05T15:23:48.698Z,18.35
2022-10-05T15:26:40.564Z,18.43
2022-10-05T15:29:29.603Z,18.49
2022-10-05T15:32:15.544Z,18.38
2022-10-05T15:35:15.089Z,18.29
2022-10-05T15:37:54.742Z,18.26
2022-10-05T15:40:45.266Z,18.29
2022-10-05T15:43:17.616Z,18.22
2022-10-05T15:46:06.569Z,18.20
2022-10-05T15:48:35.909Z,17.95
2022-10-05T15:51:08.242Z,17.71
2022-10-05T15:54:38.998Z,17.70
2022-10-05T15:57:18.229Z,17.67
2022-10-05T16:00:00.636Z,17.60
2022-10-05T16:02:41.619Z,17.38
2022-10-05T16:05:44.914Z,17.17
2022-10-05T16:08:39.159Z,16.93
2022-10-05T16:11:18.961Z,16.70
2022-10-05T16:14:10.465Z,16.56
2022-10-05T16:17:17.328Z,16.51
2022-10-05T16:20:15.196Z,16.30
2022-10-05T16:22:52.492Z,16.13
2022-10-05T16:25:41.269Z,16.10
2022-10-05T16:28:59.005Z,15.98
2022-10-05T16:31:32.889Z,15.78
2022-10-05T16:34:17.307Z,15.83
2022-10-05T16:37:06.849Z,15.91
2022-10-05T16:39:46.432Z,15.92
2022-10-05T16:42:26.597Z,15.96
2022-10-05T16:44:54.001Z,15.95
2022-10-05T16:47:57.759Z,15.90
2022-10-05T16:50:37.186Z,15.89
2022-10-05T16:53:32.218Z,15.84
2022-10-05T16:56:26.133Z,15.93
2022-10-05T16:59:01.271Z,15.77
2022-10-05T17:01:50.180Z,15.84
2022-10-05T17:04:48.058Z,15.69
2022-10-05T17:07:46.707Z,15.58
2022-10-05T17:10:38.900Z,15.54
2022-10-05T17:13:45.160Z,15.46
2022-10-05T17:16:23.565Z,15.47
2022-10-05T17:19:23.271Z,15.54
2022-10-05T17:22:00.961Z,15.49
2022-10-05T17:25:08.323Z,15.41
2022-10-05T17:27:58.567Z,15.24
2022-10-05T17:30:54.032Z,15.27
2022-10-05T17:33:33.910Z,15.19
2022-10-05T17:36:11.133Z,15.04
2022-10-05T17:38:47.533Z,14.95
2022-10-05T17:41:30.909Z,14.91
2022-10-05T17:44:13.654Z,14.87
2022-10-05T17:46:46.370Z,14.85
2022-10-05T17:49:40.467Z,14.89
2022-10-05T17:52:44.573Z,14.83
2022-10-05T17:55:43.382Z,14.69
2022-10-05T17:58:27.566Z,14.69
2022-10-05T18:01:01.718Z,14.62
2022-10-05T18:03:52.325Z,14.55
2022-10-05T18:06:37.540Z,14.59
2022-10-05T18:09:13.888Z,14.45
2022-10-05T18:12:19.129Z,14.45
2022-10-05T18:15:22.370Z,14.43
2022-10-05T18:18:21.131Z,14.34
2022-10-05T18:21:35.848Z,14.30
2022-10-05T18:24:22.261Z,14.22
2022-10-05T18:27:11.575Z,14.24
2022-10-05T18:30:05.203Z,14.23
2022-10-05T18:33:03.651Z,14.19
2022-10-05T18:35:50.774Z,14.23
2022-10-05T18:38:56.755Z,14.22
2022-10-05T18:41:57.954Z,14.09
2022-10-05T18:44:39.738Z,14.18
2022-10-05T18:47:27.633Z,14.18
2022-10-05T18:50:29.530Z,14.21
2022-10-05T18:53:02.526Z,14.26
2022-10-05T18:55:47.959Z,14.21
2022-10-05T18:58:33.125Z,14.27
2022-10-05T19:01:07.510Z,14.33
2022-10-05T19:04:02.365Z,14.27
2022-10-05T19:06:36.362Z,14.31
2022-10-05T19:09:40.528Z,14.35
2022-10-05T19:12:41.249Z,14.35
2022-10-05T19:15:24.952Z,14.35
2022-10-05T19:18:10.454Z,14.32
2022-10-05T19:20:49.831Z,14.23
2022-10-05T19:23:43.059Z,14.18
2022-10-05T19:26:39.399Z,14.20
2022-10-05T19:29:14.579Z,14.21
2022-10-05T19:31:53.429Z,14.15
2022-10-05T19:34:49.537Z,14.18
2022-10-05T19:37:21.597Z,14.23
2022-10-05T19:40:27.007Z,14.13
2022-10-05T19:43:02.396Z,14.06
2022-10-05T19:45:37.115Z,14.07
2022-10-05T19:48:51.626Z,13.99
2022-10-05T19:51:29.414Z,14.00
2022-10-05T19:54:25.264Z,14.12
2022-10-05T19:56:54.380Z,14.12
2022-10-05T19:59:32.010Z,14.18
2022-10-05T20:01:59.745Z,14.11
2022-10-05T20:04:41.442Z,14.21
2022-10-05T20:07:17.479Z,14.08
2022-10-05T20:09:52.934Z,14.14
2022-10-05T20:12:22.976Z,14.10
2022-10-05T20:15:26.699Z,14.06
2022-10-05T20:18:13.051Z,14.08
2022-10-05T20:20:45.819Z,14.19
2022-10-05T20:23:24.347Z,14.25
2022-10-05T20:26:11.458Z,14.21
2022-10-05T20:28:38.935Z,14.19
2022-10-05T20:31:08.184Z,14.29
2022-10-05T20:33:35.804Z,14.33
2022-10-05T20:36:03.740Z,14.32
2022-10-05T20:38:31.810Z,14.36
2022-10-05T20:40:59.322Z,14.18
2022-10-05T20:43:26.553Z,14.17
2022-10-05T20:45:54.179Z,14.12
2022-10-05T20:48:21.587Z,14.27
2022-10-05T20:50:48.902Z,14.18
2022-10-05T20:53:16.200Z,14.17
2022-10-05T20:55:43.493Z,14.34
2022-10-05T20:58:11.793Z,14.35
2022-10-05T21:00:58.107Z,14.44
2022-10-05T21:03:25.378Z,14.66
2022-10-05T21:05:52.665Z,14.93
2022-10-05T21:08:19.935Z,14.87
2022-10-05T21:10:47.178Z,14.76
2022-10-05T21:13:14.515Z,14.68
2022-10-05T21:15:41.767Z,14.69
2022-10-05T21:18:08.945Z,14.62
2022-10-05T21:20:36.249Z,14.54
2022-10-05T21:23:03.433Z,14.60
2022-10-05T21:25:31.328Z,14.67
2022-10-05T21:27:58.457Z,14.70
2022-10-05T21:30:25.990Z,14.82
2022-10-05T21:35:27.474Z,14.66
2022-10-05T21:37:54.638Z,14.86
2022-10-05T21:40:21.825Z,14.92
2022-10-05T21:42:49.164Z,14.82
2022-10-05T21:45:16.535Z,14.97
2022-10-05T21:47:43.756Z,15.05
2022-10-05T21:50:11.040Z,15.11
2022-10-05T21:52:38.365Z,15.11
2022-10-05T21:55:06.497Z,15.13
2022-10-05T21:57:35.586Z,15.19
2022-10-05T22:00:06.872Z,15.29
2022-10-05T22:02:34.330Z,15.38
2022-10-05T22:05:01.786Z,15.58
2022-10-05T22:07:29.189Z,15.63
2022-10-05T22:09:56.511Z,15.47
2022-10-05T22:12:24.467Z,15.55
2022-10-05T22:14:51.692Z,15.74
2022-10-05T22:17:25.413Z,15.90
2022-10-05T22:19:54.547Z,16.10
2022-10-05T22:22:23.192Z,16.28
2022-10-05T22:24:50.948Z,16.24
2022-10-05T22:27:18.689Z,16.35
2022-10-05T22:29:46.780Z,16.51
2022-10-05T22:32:13.978Z,16.55
2022-10-05T22:34:41.231Z,16.48
2022-10-05T22:37:13.011Z,16.34
2022-10-05T22:39:40.549Z,16.36
2022-10-05T22:42:08.621Z,16.50
2022-10-05T22:44:36.201Z,16.68
2022-10-05T22:47:04.558Z,16.56
2022-10-05T22:49:32.068Z,16.59
2022-10-05T22:51:59.340Z,16.58
2022-10-05T22:54:30.019Z,16.55
2022-10-05T22:56:58.446Z,16.46
2022-10-05T22:59:25.657Z,16.40
2022-10-05T23:01:52.996Z,16.37
2022-10-05T23:04:20.474Z,16.26
2022-10-05T23:06:48.044Z,16.29
2022-10-05T23:09:15.809Z,16.42
2022-10-05T23:11:42.908Z,16.48
2022-10-05T23:14:10.147Z,16.52
2022-10-05T23:16:37.711Z,16.42
2022-10-05T23:19:05.040Z,16.42
2022-10-05T23:21:32.465Z,16.39
2022-10-05T23:23:59.779Z,16.25
2022-10-05T23:26:27.215Z,16.24
2022-10-05T23:28:54.585Z,16.35
2022-10-05T23:31:24.638Z,16.34
2022-10-05T23:33:53.557Z,16.44
2022-10-05T23:36:22.774Z,16.44
2022-10-05T23:38:50.904Z,16.32
2022-10-05T23:41:21.765Z,16.38
2022-10-05T23:43:49.373Z,16.35
2022-10-05T23:46:17.748Z,16.24
2022-10-05T23:48:45.071Z,16.15
2022-10-05T23:51:13.621Z,16.12
2022-10-05T23:53:41.017Z,16.07
2022-10-05T23:56:08.278Z,16.01
2022-10-05T23:58:35.564Z,16.04
